createdAt,value
2023-08-27T00:02:17.421Z,100681.09
2023-08-27T00:04:44.696Z,100673.75
2023-08-27T00:07:11.719Z,100679.00
2023-08-27T00:09:38.738Z,100680.63
2023-08-27T00:12:06.308Z,100675.34
2023-08-27T00:14:33.280Z,100685.50
2023-08-27T00:17:04.262Z,100682.63
2023-08-27T00:19:34.278Z,100666.88
2023-08-27T00:22:04.794Z,100673.59
2023-08-27T00:24:33.321Z,100669.19
2023-08-27T00:27:00.319Z,100669.81
2023-08-27T00:29:27.322Z,100667.88
2023-08-27T00:31:54.336Z,100647.09
2023-08-27T00:34:32.064Z,100630.28
2023-08-27T00:36:59.923Z,100625.03
2023-08-27T00:39:28.069Z,100629.66
2023-08-27T00:41:54.999Z,100627.13
2023-08-27T00:44:24.588Z,100624.22
2023-08-27T00:46:52.102Z,100620.59
2023-08-27T00:49:19.154Z,100617.41
2023-08-27T00:51:47.718Z,100621.22
2023-08-27T00:54:15.178Z,100642.91
2023-08-27T00:56:47.833Z,100651.13
2023-08-27T00:59:18.125Z,100644.13
2023-08-27T01:01:48.084Z,100647.47
2023-08-27T01:04:15.049Z,100656.06
2023-08-27T01:06:42.597Z,100652.19
2023-08-27T01:09:13.790Z,100653.25
2023-08-27T01:12:00.544Z,100657.69
2023-08-27T01:14:30.973Z,100638.44
2023-08-27T01:17:00.898Z,100633.47
2023-08-27T01:19:33.530Z,100632.19
2023-08-27T01:22:00.671Z,100622.19
2023-08-27T01:24:30.116Z,100638.63
2023-08-27T01:27:12.799Z,100650.75
2023-08-27T01:30:01.073Z,100658.94
2023-08-27T01:32:59.166Z,100646.50
2023-08-27T01:35:27.470Z,100635.41
2023-08-27T01:37:58.956Z,100658.13
2023-08-27T01:40:28.390Z,100654.56
2023-08-27T01:42:58.508Z,100643.34
2023-08-27T01:45:25.644Z,100636.72
2023-08-27T01:47:52.666Z,100626.13
2023-08-27T01:50:19.818Z,100616.28
2023-08-27T01:52:46.737Z,100601.56
2023-08-27T01:55:13.804Z,100580.13
2023-08-27T01:57:40.894Z,100580.59
2023-08-27T02:00:17.865Z,100580.41
2023-08-27T02:02:46.012Z,100563.97
2023-08-27T02:05:13.050Z,100560.63
2023-08-27T02:07:41.081Z,100561.66
2023-08-27T02:10:09.695Z,100554.50
2023-08-27T02:12:39.346Z,100553.47
2023-08-27T02:15:09.692Z,100553.03
2023-08-27T02:17:39.478Z,100550.09
2023-08-27T02:20:10.709Z,100560.19
2023-08-27T02:22:37.972Z,100557.66
2023-08-27T02:25:09.403Z,100557.66
2023-08-27T02:27:39.472Z,100569.88
2023-08-27T02:30:08.516Z,100577.44
2023-08-27T02:32:35.498Z,100596.81
2023-08-27T02:35:05.028Z,100589.66
2023-08-27T02:37:31.917Z,100563.97
2023-08-27T02:39:58.904Z,100558.50
2023-08-27T02:42:25.953Z,100550.94
2023-08-27T02:44:52.953Z,100563.16
2023-08-27T02:47:20.871Z,100547.16
2023-08-27T02:49:47.902Z,100542.31
2023-08-27T02:52:14.855Z,100543.78
2023-08-27T02:54:44.951Z,100553.47
2023-08-27T02:57:11.952Z,100562.72
2023-08-27T02:59:38.897Z,100569.81
2023-08-27T03:02:10.515Z,100573.59
2023-08-27T03:04:37.842Z,100572.16
2023-08-27T03:07:07.386Z,100560.97
2023-08-27T03:09:34.325Z,100544.63
2023-08-27T03:12:05.774Z,100551.78
2023-08-27T03:14:32.726Z,100560.81
2023-08-27T03:17:01.896Z,100546.72
2023-08-27T03:19:28.900Z,100537.88
2023-08-27T03:21:55.856Z,100539.16
2023-08-27T03:24:22.859Z,100525.69
2023-08-27T03:26:51.286Z,100529.91
2023-08-27T03:29:22.100Z,100517.91
2023-08-27T03:31:49.374Z,100516.00
2023-08-27T03:34:16.422Z,100512.63
2023-08-27T03:36:43.420Z,100500.22
2023-08-27T03:39:13.145Z,100496.44
2023-08-27T03:41:42.337Z,100497.50
2023-08-27T03:44:09.321Z,100495.81
2023-08-27T03:46:37.558Z,100496.22
2023-08-27T03:49:06.348Z,100487.78
2023-08-27T03:51:35.554Z,100510.53
2023-08-27T03:54:04.149Z,100503.38
2023-08-27T03:56:31.077Z,100498.75
2023-08-27T03:58:58.169Z,100496.66
2023-08-27T04:01:29.684Z,100500.66
2023-08-27T04:03:56.965Z,100484.03
2023-08-27T04:06:23.956Z,100485.25
2023-08-27T04:08:52.969Z,100500.00
2023-08-27T04:11:21.977Z,100505.69
2023-08-27T04:13:48.895Z,100502.31
2023-08-27T04:16:15.868Z,100496.66
2023-08-27T04:18:42.846Z,100496.22
2023-08-27T04:21:10.299Z,100492.84
2023-08-27T04:23:37.276Z,100493.72
2023-08-27T04:26:04.976Z,100502.94
2023-08-27T04:28:38.238Z,100502.94
2023-08-27T04:31:05.503Z,100503.53
2023-08-27T04:33:32.567Z,100498.09
2023-08-27T04:35:59.550Z,100494.72
2023-08-27T04:38:26.605Z,100501.03
2023-08-27T04:40:54.544Z,100509.16
2023-08-27T04:43:21.812Z,100520.84
2023-08-27T04:45:49.146Z,100519.19
2023-08-27T04:48:16.190Z,100517.34
2023-08-27T04:50:47.746Z,100521.31
2023-08-27T04:53:14.986Z,100514.63
2023-08-27T04:55:42.265Z,100532.34
2023-08-27T04:58:11.739Z,100527.72
2023-08-27T05:00:41.014Z,100518.94
2023-08-27T05:03:07.968Z,100518.94
2023-08-27T05:05:36.368Z,100530.28
2023-08-27T05:08:03.847Z,100530.72
2023-08-27T05:10:30.829Z,100536.38
2023-08-27T05:12:58.301Z,100536.56
2023-08-27T05:15:25.324Z,100528.56
2023-08-27T05:17:52.412Z,100525.66
2023-08-27T05:20:19.389Z,100529.41
2023-08-27T05:22:46.417Z,100533.41
2023-08-27T05:25:15.630Z,100537.97
2023-08-27T05:27:45.746Z,100534.66
2023-08-27T05:30:16.156Z,100533.34
2023-08-27T05:32:44.579Z,100530.19
2023-08-27T05:35:11.915Z,100535.34
2023-08-27T05:37:39.122Z,100532.81
2023-08-27T05:40:07.537Z,100530.09
2023-08-27T05:42:37.488Z,100526.09
2023-08-27T05:45:05.005Z,100528.22
2023-08-27T05:47:32.438Z,100521.91
2023-08-27T05:49:59.506Z,100525.47
2023-08-27T05:52:28.707Z,100522.09
2023-08-27T05:54:55.611Z,100520.13
2023-08-27T05:57:24.762Z,100523.03
2023-08-27T05:59:51.812Z,100520.41
2023-08-27T06:02:18.755Z,100527.03
2023-08-27T06:04:45.679Z,100516.22
2023-08-27T06:07:12.651Z,100529.09
2023-08-27T06:09:39.684Z,100523.25
2023-08-27T06:12:07.600Z,100520.09
2023-08-27T06:14:35.638Z,100510.88
2023-08-27T06:17:02.829Z,100507.88
2023-08-27T06:19:47.670Z,100506.66
2023-08-27T06:22:17.918Z,100492.06
2023-08-27T06:24:46.007Z,100486.25
2023-08-27T06:27:16.096Z,100483.91
2023-08-27T06:29:48.750Z,100492.47
2023-08-27T06:32:17.321Z,100493.66
2023-08-27T06:34:44.775Z,100486.75
2023-08-27T06:37:14.813Z,100486.88
2023-08-27T06:39:41.856Z,100498.38
2023-08-27T06:42:08.932Z,100494.41
2023-08-27T06:44:36.116Z,100491.94
2023-08-27T06:47:03.026Z,100495.53
2023-08-27T06:49:33.035Z,100504.44
2023-08-27T06:52:02.457Z,100499.75
2023-08-27T06:54:30.011Z,100508.13
2023-08-27T06:57:00.016Z,100499.41
2023-08-27T06:59:27.085Z,100498.53
2023-08-27T07:01:54.082Z,100488.16
2023-08-27T07:04:24.550Z,100484.50
2023-08-27T07:06:51.566Z,100496.09
2023-08-27T07:09:19.452Z,100491.13
2023-08-27T07:11:46.924Z,100484.03
2023-08-27T07:14:13.868Z,100478.31
2023-08-27T07:16:40.929Z,100485.19
2023-08-27T07:19:08.014Z,100481.69
2023-08-27T07:21:40.668Z,100482.50
2023-08-27T07:24:14.938Z,100488.09
2023-08-27T07:26:42.254Z,100486.94
2023-08-27T07:29:09.327Z,100486.31
2023-08-27T07:31:39.029Z,100501.88
2023-08-27T07:34:08.845Z,100489.41
2023-08-27T07:36:35.893Z,100503.94
2023-08-27T07:39:05.922Z,100496.25
2023-08-27T07:41:32.894Z,100493.63
2023-08-27T07:43:59.814Z,100493.63
2023-08-27T07:46:30.365Z,100501.81
2023-08-27T07:48:57.377Z,100500.91
2023-08-27T07:51:24.395Z,100493.06
2023-08-27T07:53:51.689Z,100483.19
2023-08-27T07:56:18.702Z,100474.06
2023-08-27T07:58:45.722Z,100476.66
2023-08-27T08:01:14.909Z,100475.50
2023-08-27T08:03:42.631Z,100470.94
2023-08-27T08:06:09.781Z,100473.75
2023-08-27T08:08:36.929Z,100471.19
2023-08-27T08:11:04.003Z,100484.72
2023-08-27T08:13:31.234Z,100501.28
2023-08-27T08:15:58.730Z,100494.50
2023-08-27T08:18:27.976Z,100495.09
2023-08-27T08:20:57.114Z,100511.94
2023-08-27T08:23:24.079Z,100495.03
2023-08-27T08:25:51.187Z,100486.91
2023-08-27T08:28:18.145Z,100474.28
2023-08-27T08:30:50.044Z,100486.28
2023-08-27T08:33:17.904Z,100496.50
2023-08-27T08:35:45.620Z,100489.91
2023-08-27T08:38:14.853Z,100495.78
2023-08-27T08:40:59.486Z,100475.03
2023-08-27T08:43:36.778Z,100464.06
2023-08-27T08:46:08.865Z,100470.19
2023-08-27T08:48:42.793Z,100464.78
2023-08-27T08:51:14.853Z,100434.47
2023-08-27T08:53:44.764Z,100440.19
2023-08-27T08:56:30.790Z,100461.91
2023-08-27T08:58:59.547Z,100453.34
2023-08-27T09:01:30.976Z,100444.59
2023-08-27T09:04:00.753Z,100442.09
2023-08-27T09:06:28.224Z,100434.94
2023-08-27T09:08:55.864Z,100449.31
2023-08-27T09:11:23.361Z,100452.13
2023-08-27T09:13:51.316Z,100453.81
2023-08-27T09:16:20.438Z,100456.00
2023-08-27T09:18:47.451Z,100442.25
2023-08-27T09:21:14.613Z,100460.31
2023-08-27T09:23:41.614Z,100463.00
2023-08-27T09:26:13.666Z,100448.72
2023-08-27T09:28:43.635Z,100454.78
2023-08-27T09:31:11.962Z,100454.94
2023-08-27T09:33:43.403Z,100455.91
2023-08-27T09:36:11.048Z,100461.59
2023-08-27T09:38:40.421Z,100455.97
2023-08-27T09:41:18.425Z,100448.00
2023-08-27T09:43:55.105Z,100445.84
2023-08-27T09:46:23.152Z,100452.84
2023-08-27T09:49:06.251Z,100453.06
2023-08-27T09:51:35.208Z,100452.91
2023-08-27T09:54:13.456Z,100449.16
2023-08-27T09:56:40.531Z,100445.22
2023-08-27T09:59:10.061Z,100443.84
2023-08-27T10:01:45.857Z,100427.28
2023-08-27T10:04:12.798Z,100409.47
2023-08-27T10:06:39.831Z,100414.00
2023-08-27T10:09:07.153Z,100427.19
2023-08-27T10:11:37.353Z,100427.25
2023-08-27T10:14:05.976Z,100427.97
2023-08-27T10:16:37.247Z,100423.59
2023-08-27T10:19:07.532Z,100420.28
2023-08-27T10:21:34.681Z,100412.22
2023-08-27T10:24:04.053Z,100420.44
2023-08-27T10:29:35.979Z,100400.81
2023-08-27T10:32:04.191Z,100405.03
2023-08-27T10:34:34.791Z,100402.38
2023-08-27T10:37:09.095Z,100390.22
2023-08-27T10:39:42.196Z,100396.16
2023-08-27T10:42:09.469Z,100394.09
2023-08-27T10:44:37.213Z,100389.38
2023-08-27T10:47:16.054Z,100393.06
2023-08-27T10:49:49.991Z,100384.63
2023-08-27T10:52:27.014Z,100385.19
2023-08-27T10:55:01.845Z,100369.59
2023-08-27T10:57:28.802Z,100366.84
2023-08-27T11:00:12.002Z,100377.47
2023-08-27T11:03:14.410Z,100365.47
2023-08-27T11:05:46.664Z,100360.66
2023-08-27T11:08:17.478Z,100370.25
2023-08-27T11:10:47.331Z,100361.38
2023-08-27T11:13:36.806Z,100358.63
2023-08-27T11:16:14.622Z,100346.97
2023-08-27T11:18:51.681Z,100353.88
2023-08-27T11:21:27.716Z,100342.16
2023-08-27T11:24:25.928Z,100341.47
2023-08-27T11:26:54.485Z,100338.00
2023-08-27T11:29:24.958Z,100348.91
2023-08-27T11:31:52.184Z,100351.47
2023-08-27T11:34:21.308Z,100342.69
2023-08-27T11:36:50.170Z,100346.00
2023-08-27T11:39:17.333Z,100339.88
2023-08-27T11:41:45.533Z,100347.41
2023-08-27T11:44:12.929Z,100347.41
2023-08-27T11:46:42.905Z,100335.72
2023-08-27T11:49:12.054Z,100342.56
2023-08-27T11:51:39.017Z,100344.84
2023-08-27T11:54:08.456Z,100354.47
2023-08-27T11:56:41.102Z,100355.84
2023-08-27T11:59:08.104Z,100351.06
2023-08-27T12:01:38.661Z,100356.16
2023-08-27T12:04:12.588Z,100350.66
2023-08-27T12:06:39.608Z,100352.03
2023-08-27T12:09:09.497Z,100345.41
2023-08-27T12:11:38.553Z,100341.84
2023-08-27T12:14:05.467Z,100340.22
2023-08-27T12:16:34.712Z,100330.28
2023-08-27T12:19:09.861Z,100331.47
2023-08-27T12:21:55.175Z,100324.94
2023-08-27T12:24:45.524Z,100329.16
2023-08-27T12:27:18.373Z,100328.63
2023-08-27T12:29:47.297Z,100324.94
2023-08-27T12:32:19.082Z,100326.69
2023-08-27T12:34:53.810Z,100327.28
2023-08-27T12:37:26.846Z,100315.44
2023-08-27T12:39:57.262Z,100323.94
2023-08-27T12:42:26.557Z,100328.19
2023-08-27T12:44:54.260Z,100329.59
2023-08-27T12:47:21.344Z,100334.97
2023-08-27T12:49:48.300Z,100346.19
2023-08-27T12:52:19.284Z,100347.47
2023-08-27T12:54:50.975Z,100339.91
2023-08-27T12:57:18.094Z,100332.81
2023-08-27T12:59:44.985Z,100339.03
2023-08-27T13:02:11.948Z,100340.50
2023-08-27T13:04:41.232Z,100349.16
2023-08-27T13:07:08.152Z,100354.81
2023-08-27T13:09:38.172Z,100355.66
2023-08-27T13:12:08.864Z,100344.44
2023-08-27T13:14:35.932Z,100341.94
2023-08-27T13:17:03.241Z,100342.97
2023-08-27T13:19:31.847Z,100353.75
2023-08-27T13:21:58.780Z,100347.72
2023-08-27T13:24:25.791Z,100340.69
2023-08-27T13:26:52.800Z,100340.41
2023-08-27T13:29:36.832Z,100340.91
2023-08-27T13:32:05.270Z,100325.56
2023-08-27T13:34:32.374Z,100333.63
2023-08-27T13:36:59.843Z,100345.09
2023-08-27T13:39:26.841Z,100341.50
2023-08-27T13:41:53.884Z,100338.34
2023-08-27T13:44:20.794Z,100340.59
2023-08-27T13:46:47.719Z,100344.16
2023-08-27T13:49:14.792Z,100341.13
2023-08-27T13:51:41.771Z,100336.69
2023-08-27T13:54:10.472Z,100338.25
2023-08-27T13:56:40.496Z,100329.22
2023-08-27T13:59:10.430Z,100318.63
2023-08-27T14:01:42.311Z,100326.50
2023-08-27T14:04:11.668Z,100327.31
2023-08-27T14:06:40.138Z,100334.22
2023-08-27T14:09:07.153Z,100335.94
2023-08-27T14:11:35.741Z,100329.44
2023-08-27T14:14:05.297Z,100332.44
2023-08-27T14:16:32.178Z,100331.78
2023-08-27T14:18:59.089Z,100335.84
2023-08-27T14:21:25.992Z,100340.25
2023-08-27T14:23:55.041Z,100336.84
2023-08-27T14:26:22.089Z,100340.56
2023-08-27T14:28:49.124Z,100337.94
2023-08-27T14:31:20.726Z,100339.88
2023-08-27T14:33:47.637Z,100335.22
2023-08-27T14:36:14.552Z,100328.03
2023-08-27T14:38:45.212Z,100332.25
2023-08-27T14:41:14.317Z,100335.84
2023-08-27T14:43:41.285Z,100349.16
2023-08-27T14:46:08.253Z,100347.50
2023-08-27T14:48:35.562Z,100342.25
2023-08-27T14:51:02.596Z,100344.72
2023-08-27T14:53:29.546Z,100340.00
2023-08-27T14:55:56.489Z,100334.19
2023-08-27T14:58:26.376Z,100329.19
2023-08-27T15:00:53.432Z,100331.59
2023-08-27T15:03:20.489Z,100339.00
2023-08-27T15:05:47.619Z,100333.75
2023-08-27T15:08:14.604Z,100328.84
2023-08-27T15:10:41.527Z,100339.88
2023-08-27T15:13:08.626Z,100336.84
2023-08-27T15:15:35.626Z,100340.50
2023-08-27T15:18:02.754Z,100338.19
2023-08-27T15:20:33.006Z,100339.81
2023-08-27T15:23:00.096Z,100346.06
2023-08-27T15:25:27.430Z,100335.84
2023-08-27T15:27:54.510Z,100335.84
2023-08-27T15:30:23.758Z,100336.03
2023-08-27T15:32:50.826Z,100340.09
2023-08-27T15:35:20.646Z,100335.97
2023-08-27T15:37:50.160Z,100334.41
2023-08-27T15:40:17.413Z,100325.84
2023-08-27T15:42:48.726Z,100328.53
2023-08-27T15:45:16.098Z,100327.69
2023-08-27T15:47:47.721Z,100324.94
2023-08-27T15:50:17.573Z,100326.81
2023-08-27T15:52:47.791Z,100329.50
2023-08-27T15:55:14.815Z,100334.19
2023-08-27T15:57:41.715Z,100324.16
2023-08-27T16:00:09.768Z,100314.13
2023-08-27T16:02:36.768Z,100303.06
2023-08-27T16:05:03.960Z,100312.22
2023-08-27T16:07:30.844Z,100307.75
2023-08-27T16:09:57.727Z,100302.81
2023-08-27T16:12:29.282Z,100312.59
2023-08-27T16:14:56.328Z,100321.59
2023-08-27T16:17:23.277Z,100321.25
2023-08-27T16:19:53.800Z,100328.22
2023-08-27T16:22:20.731Z,100327.13
2023-08-27T16:24:48.121Z,100333.59
2023-08-27T16:27:17.116Z,100325.72
2023-08-27T16:29:44.030Z,100322.78
2023-08-27T16:32:13.453Z,100320.78
2023-08-27T16:34:43.347Z,100321.00
2023-08-27T16:37:13.329Z,100311.34
2023-08-27T16:39:40.396Z,100315.34
2023-08-27T16:42:11.884Z,100327.78
2023-08-27T16:44:40.897Z,100334.38
2023-08-27T16:47:07.932Z,100330.41
2023-08-27T16:49:35.171Z,100331.19
2023-08-27T16:52:02.235Z,100334.69
2023-08-27T16:54:29.214Z,100329.75
2023-08-27T16:57:00.839Z,100328.44
2023-08-27T16:59:27.717Z,100327.84
2023-08-27T17:01:54.796Z,100326.75
2023-08-27T17:04:24.799Z,100328.91
2023-08-27T17:06:55.262Z,100333.44
2023-08-27T17:09:22.282Z,100335.63
2023-08-27T17:11:51.866Z,100329.00
2023-08-27T17:14:18.914Z,100338.38
2023-08-27T17:16:46.020Z,100334.25
2023-08-27T17:19:13.017Z,100340.56
2023-08-27T17:21:40.201Z,100337.63
2023-08-27T17:24:12.656Z,100342.69
2023-08-27T17:26:39.683Z,100341.78
2023-08-27T17:29:09.365Z,100356.69
2023-08-27T17:31:36.530Z,100362.59
2023-08-27T17:34:04.384Z,100376.28
2023-08-27T17:36:34.111Z,100371.84
2023-08-27T17:39:01.102Z,100373.44
2023-08-27T17:41:31.266Z,100387.56
2023-08-27T17:43:58.185Z,100392.34
2023-08-27T17:46:30.335Z,100395.09
2023-08-27T17:48:59.876Z,100399.88
2023-08-27T17:51:26.797Z,100398.28
2023-08-27T17:53:53.725Z,100405.75
2023-08-27T17:56:23.631Z,100404.22
2023-08-27T17:58:51.238Z,100404.97
2023-08-27T18:01:18.153Z,100398.13
2023-08-27T18:03:45.126Z,100402.28
2023-08-27T18:06:14.584Z,100398.56
2023-08-27T18:08:41.501Z,100400.13
2023-08-27T18:11:10.680Z,100404.94
2023-08-27T18:13:40.165Z,100398.75
2023-08-27T18:16:08.190Z,100399.09
2023-08-27T18:18:38.709Z,100399.72
2023-08-27T18:21:05.714Z,100394.75
2023-08-27T18:23:32.650Z,100393.78
2023-08-27T18:26:07.943Z,100404.75
2023-08-27T18:28:38.945Z,100407.78
2023-08-27T18:31:05.957Z,100401.03
2023-08-27T18:33:32.982Z,100407.53
2023-08-27T18:36:00.095Z,100409.66
2023-08-27T18:38:27.971Z,100408.50
2023-08-27T18:40:56.219Z,100401.50
2023-08-27T18:43:23.908Z,100397.59
2023-08-27T18:45:53.519Z,100405.69
2023-08-27T18:48:20.597Z,100417.34
2023-08-27T18:50:50.211Z,100412.91
2023-08-27T18:53:19.367Z,100413.72
2023-08-27T18:55:47.233Z,100410.38
2023-08-27T18:58:16.630Z,100404.63
2023-08-27T19:00:43.641Z,100400.66
2023-08-27T19:03:10.757Z,100414.13
2023-08-27T19:05:42.050Z,100409.53
2023-08-27T19:08:09.173Z,100407.44
2023-08-27T19:10:36.397Z,100404.94
2023-08-27T19:13:03.781Z,100400.06
2023-08-27T19:15:35.143Z,100398.41
2023-08-27T19:18:03.858Z,100398.16
2023-08-27T19:20:34.072Z,100411.63
2023-08-27T19:23:03.394Z,100413.88
2023-08-27T19:25:33.011Z,100415.63
2023-08-27T19:28:00.335Z,100413.91
2023-08-27T19:30:27.702Z,100408.66
2023-08-27T19:32:58.083Z,100413.72
2023-08-27T19:35:25.301Z,100415.81
2023-08-27T19:37:59.131Z,100418.16
2023-08-27T19:40:26.964Z,100415.84
2023-08-27T19:42:53.982Z,100403.25
2023-08-27T19:45:24.636Z,100415.06
2023-08-27T19:47:51.624Z,100413.97
2023-08-27T19:50:18.696Z,100412.94
2023-08-27T19:52:45.795Z,100417.38
2023-08-27T19:55:13.280Z,100410.84
2023-08-27T19:57:40.310Z,100422.56
2023-08-27T20:00:08.308Z,100422.91
2023-08-27T20:02:38.314Z,100420.44
2023-08-27T20:05:06.091Z,100420.25
2023-08-27T20:07:33.080Z,100418.34
2023-08-27T20:10:00.046Z,100415.84
2023-08-27T20:12:26.956Z,100424.22
2023-08-27T20:14:56.833Z,100425.25
2023-08-27T20:17:23.754Z,100422.75
2023-08-27T20:19:53.822Z,100433.22
2023-08-27T20:22:23.867Z,100438.91
2023-08-27T20:24:50.938Z,100439.78
2023-08-27T20:27:20.331Z,100445.22
2023-08-27T20:29:47.293Z,100435.53
2023-08-27T20:32:14.336Z,100443.47
2023-08-27T20:34:44.680Z,100448.50
2023-08-27T20:37:16.130Z,100442.31
2023-08-27T20:39:44.709Z,100443.72
2023-08-27T20:42:11.592Z,100453.72
2023-08-27T20:44:39.110Z,100450.25
2023-08-27T20:47:06.051Z,100456.34
2023-08-27T20:49:35.154Z,100453.53
2023-08-27T20:52:04.800Z,100445.28
2023-08-27T20:54:31.775Z,100445.91
2023-08-27T20:56:58.827Z,100441.72
2023-08-27T20:59:25.857Z,100440.66
2023-08-27T21:01:58.587Z,100439.59
2023-08-27T21:04:28.902Z,100455.34
2023-08-27T21:06:55.929Z,100459.47
2023-08-27T21:09:23.415Z,100456.16
2023-08-27T21:11:50.383Z,100455.25
2023-08-27T21:14:17.413Z,100460.94
2023-08-27T21:16:44.527Z,100456.63
2023-08-27T21:19:16.925Z,100460.56
2023-08-27T21:21:43.845Z,100461.59
2023-08-27T21:24:12.326Z,100460.28
2023-08-27T21:26:44.350Z,100461.66
2023-08-27T21:29:11.264Z,100463.59
2023-08-27T21:31:53.943Z,100471.31
2023-08-27T21:34:22.560Z,100462.50
2023-08-27T21:36:53.273Z,100465.28
2023-08-27T21:39:23.415Z,100459.63
2023-08-27T21:41:53.086Z,100467.53
2023-08-27T21:44:20.362Z,100469.34
2023-08-27T21:46:49.556Z,100473.78
2023-08-27T21:49:18.186Z,100470.94
2023-08-27T21:51:46.086Z,100472.22
2023-08-27T21:54:14.166Z,100468.50
2023-08-27T21:56:43.527Z,100468.78
2023-08-27T21:59:10.439Z,100475.88
2023-08-27T22:01:37.415Z,100475.59
2023-08-27T22:04:04.931Z,100482.41
2023-08-27T22:06:31.997Z,100482.16
2023-08-27T22:08:59.369Z,100483.63
2023-08-27T22:11:28.094Z,100483.66
2023-08-27T22:13:59.855Z,100484.47
2023-08-27T22:16:26.876Z,100487.00
2023-08-27T22:18:57.134Z,100481.44
2023-08-27T22:21:25.328Z,100485.09
2023-08-27T22:23:56.226Z,100488.16
2023-08-27T22:26:23.269Z,100496.72
2023-08-27T22:28:50.166Z,100496.72
2023-08-27T22:31:17.083Z,100500.53
2023-08-27T22:33:44.388Z,100505.41
2023-08-27T22:36:13.601Z,100502.56
2023-08-27T22:38:40.669Z,100494.34
2023-08-27T22:41:07.620Z,100500.94
2023-08-27T22:43:37.023Z,100509.22
2023-08-27T22:46:07.078Z,100501.88
2023-08-27T22:48:34.026Z,100495.22
2023-08-27T22:51:03.419Z,100487.78
2023-08-27T22:53:30.386Z,100500.81
2023-08-27T22:55:57.865Z,100488.22
2023-08-27T22:58:24.774Z,100504.25
2023-08-27T23:00:56.742Z,100501.63
2023-08-27T23:03:23.724Z,100501.88
2023-08-27T23:05:53.308Z,100502.13
2023-08-27T23:08:20.286Z,100511.88
2023-08-27T23:10:50.258Z,100513.13
2023-08-27T23:13:19.523Z,100505.50
2023-08-27T23:15:50.185Z,100503.16
2023-08-27T23:18:22.781Z,100503.06
2023-08-27T23:20:49.701Z,100505.94
2023-08-27T23:23:16.645Z,100498.78
2023-08-27T23:25:46.236Z,100493.75
2023-08-27T23:28:16.042Z,100495.38
2023-08-27T23:30:43.184Z,100499.38
2023-08-27T23:33:10.541Z,100503.06
2023-08-27T23:35:37.793Z,100493.03
2023-08-27T23:38:05.022Z,100495.56
2023-08-27T23:40:31.916Z,100496.78
2023-08-27T23:42:58.874Z,100498.25
2023-08-27T23:45:27.970Z,100498.94
2023-08-27T23:47:55.089Z,100498.34
2023-08-27T23:50:21.991Z,100505.19
2023-08-27T23:52:49.229Z,100501.03
2023-08-27T23:55:16.546Z,100496.69
2023-08-27T23:57:43.651Z,100500.38
